sim
Sign-in with your pilot id or email,
or register
Callsign
Passwort

Schedule Details

Flight Number: UAE506
Departure: Dubai International Airport (OMDB) at 05:30
Arrival: Mumbai Chhatrapati Shivaji International Airport (VABB) at 08:30
Route: Emirates Passenger Schedule. Enter filed route here before submitting Pirep.

Weather Information
Getting current METAR information for OMDB 091500Z 08008KT 050V110 CAVOK 25/20 Q1016 NOSIG
Getting current METAR information for VABB 091530Z 33006KT 3000 HZ NSC 29/23 Q1014 NOSIG

Schedule Frequency

Route Map